createdAt,value
2022-11-28T00:01:01.433Z,21.08
2022-11-28T00:04:05.271Z,21.12
2022-11-28T00:07:08.166Z,21.05
2022-11-28T00:10:11.545Z,21.11
2022-11-28T00:13:15.773Z,21.10
2022-11-28T00:16:21.554Z,21.04
2022-11-28T00:19:24.556Z,21.02
2022-11-28T00:22:29.470Z,21.17
2022-11-28T00:25:32.269Z,21.03
2022-11-28T00:28:36.800Z,21.10
2022-11-28T00:31:42.744Z,21.05
2022-11-28T00:34:46.045Z,21.02
2022-11-28T00:37:48.811Z,21.02
2022-11-28T00:40:58.933Z,21.22
2022-11-28T00:44:03.203Z,21.01
2022-11-28T00:47:06.010Z,20.87
2022-11-28T00:50:09.221Z,20.82
2022-11-28T00:53:11.986Z,20.75
2022-11-28T00:56:15.515Z,20.70
2022-11-28T00:59:19.673Z,20.64
2022-11-28T01:02:22.578Z,20.61
2022-11-28T01:05:25.386Z,20.55
2022-11-28T01:08:28.456Z,20.50
2022-11-28T01:11:31.752Z,20.55
2022-11-28T01:14:35.922Z,20.52
2022-11-28T01:17:38.739Z,20.47
2022-11-28T01:20:41.517Z,20.51
2022-11-28T01:23:44.476Z,20.47
2022-11-28T01:26:47.261Z,20.48
2022-11-28T01:29:51.566Z,20.40
2022-11-28T01:32:54.294Z,20.39
2022-11-28T01:35:57.813Z,20.34
2022-11-28T01:39:00.746Z,20.30
2022-11-28T01:42:03.497Z,20.25
2022-11-28T01:45:13.073Z,20.24
2022-11-28T01:48:19.362Z,20.20
2022-11-28T01:51:22.358Z,20.18
2022-11-28T01:54:26.727Z,20.16
2022-11-28T01:57:29.579Z,20.10
2022-11-28T02:00:34.813Z,20.01
2022-11-28T02:03:41.918Z,20.01
2022-11-28T02:06:44.873Z,19.98
2022-11-28T02:09:47.675Z,19.96
2022-11-28T02:13:12.291Z,19.95
2022-11-28T02:16:26.812Z,19.88
2022-11-28T02:19:44.446Z,19.89
2022-11-28T02:22:50.002Z,19.93
2022-11-28T02:26:10.665Z,19.95
2022-11-28T02:29:29.310Z,20.02
2022-11-28T02:32:49.960Z,20.10
2022-11-28T02:35:58.153Z,20.17
2022-11-28T02:39:07.141Z,20.25
2022-11-28T02:42:14.208Z,20.32
2022-11-28T02:45:20.992Z,20.33
2022-11-28T02:48:28.205Z,20.40
2022-11-28T02:51:35.232Z,20.43
2022-11-28T02:54:39.671Z,20.46
2022-11-28T02:57:43.805Z,20.47
2022-11-28T03:00:47.577Z,20.50
2022-11-28T03:03:57.681Z,20.55
2022-11-28T03:07:07.703Z,20.58
2022-11-28T03:10:15.757Z,20.56
2022-11-28T03:13:23.615Z,20.59
2022-11-28T03:16:28.598Z,20.57
2022-11-28T03:19:33.941Z,20.60
2022-11-28T03:22:42.166Z,20.64
2022-11-28T03:25:56.465Z,20.61
2022-11-28T03:29:02.114Z,20.62
2022-11-28T03:32:07.836Z,20.65
2022-11-28T03:35:12.985Z,20.68
2022-11-28T03:38:19.814Z,20.69
2022-11-28T03:41:25.101Z,20.71
2022-11-28T03:44:29.756Z,20.72
2022-11-28T03:47:35.748Z,20.72
2022-11-28T03:50:43.128Z,20.73
2022-11-28T03:53:51.691Z,20.73
2022-11-28T03:56:58.273Z,20.75
2022-11-28T04:00:02.477Z,20.78
2022-11-28T04:03:11.829Z,20.75
2022-11-28T04:06:17.868Z,20.79
2022-11-28T04:09:25.170Z,20.78
2022-11-28T04:12:32.608Z,20.77
2022-11-28T04:15:39.155Z,20.83
2022-11-28T04:18:48.057Z,20.83
2022-11-28T04:21:54.386Z,20.80
2022-11-28T04:24:59.784Z,20.86
2022-11-28T04:28:05.322Z,20.86
2022-11-28T04:31:08.650Z,20.89
2022-11-28T04:34:13.012Z,20.88
2022-11-28T04:37:16.871Z,20.83
2022-11-28T04:40:22.109Z,20.86
2022-11-28T04:43:26.462Z,20.89
2022-11-28T04:46:31.864Z,20.85
2022-11-28T04:49:35.001Z,20.91
2022-11-28T04:52:40.340Z,20.91
2022-11-28T04:55:46.978Z,20.91
2022-11-28T04:58:50.729Z,20.88
2022-11-28T05:01:53.634Z,20.91
2022-11-28T05:04:56.630Z,20.95
2022-11-28T05:08:00.045Z,20.79
2022-11-28T05:11:04.286Z,20.79
2022-11-28T05:14:07.019Z,20.69
2022-11-28T05:17:09.882Z,20.63
2022-11-28T05:20:12.946Z,20.63
2022-11-28T05:23:15.691Z,20.60
2022-11-28T05:26:20.583Z,20.62
2022-11-28T05:29:24.949Z,20.60
2022-11-28T05:32:30.034Z,20.53
2022-11-28T05:35:32.831Z,20.49
2022-11-28T05:38:36.012Z,20.47
2022-11-28T05:41:40.169Z,20.45
2022-11-28T05:44:43.034Z,20.42
2022-11-28T05:47:45.818Z,20.40
2022-11-28T05:50:50.750Z,20.40
2022-11-28T05:53:53.513Z,20.39
2022-11-28T05:56:57.734Z,20.35
2022-11-28T06:00:00.485Z,20.32
2022-11-28T06:03:03.310Z,20.25
2022-11-28T06:06:06.264Z,20.24
2022-11-28T06:09:09.096Z,20.24
2022-11-28T06:12:13.514Z,20.18
2022-11-28T06:15:16.694Z,20.15
2022-11-28T06:18:19.460Z,20.13
2022-11-28T06:21:22.776Z,20.08
2022-11-28T06:24:25.657Z,20.06
2022-11-28T06:27:30.057Z,20.01
2022-11-28T06:30:32.892Z,19.97
2022-11-28T06:33:36.655Z,19.94
2022-11-28T06:36:39.745Z,19.93
2022-11-28T06:39:42.713Z,19.94
2022-11-28T06:42:50.423Z,19.88
2022-11-28T06:45:53.246Z,19.88
2022-11-28T06:48:56.099Z,19.86
2022-11-28T06:51:58.843Z,19.81
2022-11-28T06:55:01.643Z,19.82
2022-11-28T06:58:05.837Z,19.79
2022-11-28T07:01:09.664Z,19.77
2022-11-28T07:04:12.540Z,19.75
2022-11-28T07:07:16.815Z,19.74
2022-11-28T07:10:19.914Z,19.71
2022-11-28T07:13:24.414Z,19.69
2022-11-28T07:16:28.300Z,19.66
2022-11-28T07:19:31.097Z,19.82
2022-11-28T07:22:33.816Z,19.87
2022-11-28T07:25:36.634Z,19.98
2022-11-28T07:28:41.421Z,20.06
2022-11-28T07:31:44.298Z,20.13
2022-11-28T07:34:50.100Z,20.18
2022-11-28T07:37:53.193Z,20.24
2022-11-28T07:40:56.003Z,20.28
2022-11-28T07:44:01.309Z,20.35
2022-11-28T07:47:04.645Z,20.37
2022-11-28T07:50:08.131Z,20.43
2022-11-28T07:53:11.225Z,20.44
2022-11-28T07:56:15.299Z,20.45
2022-11-28T07:59:19.500Z,20.48
2022-11-28T17:20:29.384Z,17.59
2022-11-28T17:23:32.433Z,17.76
2022-11-28T17:26:35.195Z,17.73
2022-11-28T17:29:37.997Z,17.80
2022-11-28T17:32:44.146Z,17.95
2022-11-28T17:35:51.039Z,17.98
2022-11-28T17:38:53.850Z,18.03
2022-11-28T17:41:57.265Z,17.97
2022-11-28T17:45:00.044Z,18.02
2022-11-28T17:48:02.836Z,18.10
2022-11-28T17:51:07.061Z,18.27
2022-11-28T17:54:11.343Z,18.18
2022-11-28T17:57:14.305Z,18.20
2022-11-28T18:00:17.687Z,18.30
2022-11-28T18:03:20.561Z,18.31
2022-11-28T18:06:24.790Z,18.33
2022-11-28T18:09:29.233Z,18.34
2022-11-28T18:12:32.359Z,18.43
2022-11-28T18:15:36.075Z,18.41
2022-11-28T18:18:38.897Z,18.44
2022-11-28T18:21:43.125Z,18.45
2022-11-28T18:24:45.898Z,18.49
2022-11-28T18:27:48.710Z,18.46
2022-11-28T18:30:51.487Z,18.50
2022-11-28T18:33:58.910Z,18.47
2022-11-28T18:37:05.925Z,18.50
2022-11-28T18:40:09.726Z,18.50
2022-11-28T18:43:13.128Z,18.49
2022-11-28T18:46:17.537Z,18.52
2022-11-28T18:49:20.491Z,18.59
2022-11-28T18:52:24.788Z,18.52
2022-11-28T18:55:27.548Z,18.49
2022-11-28T18:58:30.787Z,18.45
2022-11-28T19:01:35.508Z,18.46
2022-11-28T19:04:41.455Z,18.66
2022-11-28T19:07:45.750Z,18.48
2022-11-28T19:10:48.666Z,18.39
2022-11-28T19:13:53.590Z,18.33
2022-11-28T19:16:56.963Z,18.35
2022-11-28T19:19:59.841Z,18.42
2022-11-28T19:23:03.984Z,18.35
2022-11-28T19:26:08.565Z,18.38
2022-11-28T19:29:11.369Z,18.38
2022-11-28T19:32:14.251Z,18.37
2022-11-28T19:35:17.276Z,18.28
2022-11-28T19:38:21.511Z,18.26
2022-11-28T19:41:24.758Z,18.24
2022-11-28T19:44:29.471Z,18.19
2022-11-28T19:47:32.300Z,18.26
2022-11-28T19:50:35.172Z,17.96
2022-11-28T19:53:41.526Z,18.06
2022-11-28T19:56:44.565Z,18.04
2022-11-28T19:59:47.603Z,18.06
2022-11-28T20:02:50.631Z,18.01
2022-11-28T20:05:53.393Z,18.00
2022-11-28T20:08:59.856Z,17.99
2022-11-28T20:12:02.623Z,18.16
2022-11-28T20:15:05.870Z,18.22
2022-11-28T20:18:08.709Z,18.32
2022-11-28T20:21:12.914Z,18.39
2022-11-28T20:24:17.385Z,18.57
2022-11-28T20:27:20.164Z,18.55
2022-11-28T20:30:22.985Z,18.72
2022-11-28T20:33:25.697Z,18.68
2022-11-28T20:36:29.849Z,18.67
2022-11-28T20:39:34.024Z,18.74
2022-11-28T20:42:39.975Z,18.69
2022-11-28T20:45:43.098Z,18.74
2022-11-28T20:48:45.994Z,18.74
2022-11-28T20:51:50.337Z,18.75
2022-11-28T20:54:54.469Z,18.78
2022-11-28T20:57:57.308Z,18.75
2022-11-28T21:01:00.302Z,18.79
2022-11-28T21:04:04.281Z,18.78
2022-11-28T21:07:06.986Z,18.79
2022-11-28T21:10:11.625Z,18.79
2022-11-28T21:13:14.438Z,18.84
2022-11-28T21:16:18.831Z,18.85
2022-11-28T21:19:21.860Z,18.87
2022-11-28T21:22:24.750Z,18.90
2022-11-28T21:25:28.929Z,18.95
2022-11-28T21:28:31.633Z,19.03
2022-11-28T21:31:35.449Z,19.01
2022-11-28T21:34:38.394Z,19.01
2022-11-28T21:37:41.148Z,19.02
2022-11-28T21:40:52.267Z,19.03
2022-11-28T21:43:55.411Z,19.29
2022-11-28T21:46:58.231Z,19.22
2022-11-28T21:50:01.027Z,19.12
2022-11-28T21:53:03.772Z,19.12
2022-11-28T21:56:08.329Z,19.25
2022-11-28T21:59:11.082Z,19.43
2022-11-28T22:02:15.227Z,19.25
2022-11-28T22:05:18.125Z,19.20
2022-11-28T22:08:21.114Z,19.23
2022-11-28T22:11:25.615Z,19.25
2022-11-28T22:14:36.407Z,19.27
2022-11-28T22:17:39.488Z,19.25
2022-11-28T22:20:45.750Z,19.38
2022-11-28T22:23:50.752Z,19.69
2022-11-28T22:26:55.064Z,19.43
2022-11-28T22:29:57.873Z,19.53
2022-11-28T22:33:00.713Z,19.56
2022-11-28T22:36:04.683Z,19.64
2022-11-28T22:39:07.499Z,19.49
2022-11-28T22:42:11.648Z,19.70
2022-11-28T22:45:14.421Z,19.68
2022-11-28T22:48:19.255Z,19.68
2022-11-28T22:51:24.266Z,19.73
2022-11-28T22:54:27.051Z,19.73
2022-11-28T22:57:31.229Z,19.66
2022-11-28T23:00:33.960Z,19.78
2022-11-28T23:03:37.093Z,19.79
2022-11-28T23:06:39.938Z,19.64
2022-11-28T23:09:42.752Z,19.73
2022-11-28T23:12:46.880Z,19.99
2022-11-28T23:15:52.776Z,19.85
2022-11-28T23:18:56.796Z,19.88
2022-11-28T23:21:59.638Z,19.80
2022-11-28T23:25:02.397Z,19.92
2022-11-28T23:28:07.334Z,19.90
2022-11-28T23:31:12.192Z,19.84
2022-11-28T23:34:15.300Z,19.77
2022-11-28T23:37:18.486Z,19.72
2022-11-28T23:40:21.250Z,19.95
2022-11-28T23:43:25.421Z,19.77
2022-11-28T23:46:28.554Z,19.68
2022-11-28T23:49:31.359Z,19.68
2022-11-28T23:52:34.133Z,19.71
2022-11-28T23:55:36.966Z,19.71
2022-11-28T23:58:42.630Z,19.70
